sensor_id;sensor_type;location;lat;lon;timestamp;pressure;altitude;pressure_sealevel;temperature;humidity
19890;BME280;10107;51.198;6.824;2023-05-18T00:01:49;-21535.53;;;8.22;82.45
19890;BME280;10107;51.198;6.824;2023-05-18T00:05:53;-21534.59;;;8.18;83.01
19890;BME280;10107;51.198;6.824;2023-05-18T00:09:58;-21532.72;;;8.11;83.41
19890;BME280;10107;51.198;6.824;2023-05-18T00:14:00;-21532.72;;;8.11;84.14
19890;BME280;10107;51.198;6.824;2023-05-18T00:18:02;-21531.94;;;8.08;83.67
19890;BME280;10107;51.198;6.824;2023-05-18T00:22:04;-21530.06;;;8.01;85.56
19890;BME280;10107;51.198;6.824;2023-05-18T00:26:08;-21529.00;;;7.97;85.53
19890;BME280;10107;51.198;6.824;2023-05-18T00:30:11;-21527.53;;;7.91;86.66
19890;BME280;10107;51.198;6.824;2023-05-18T00:34:14;-21526.06;;;7.85;87.75
19890;BME280;10107;51.198;6.824;2023-05-18T00:38:17;-21524.88;;;7.81;87.88
19890;BME280;10107;51.198;6.824;2023-05-18T00:42:20;-21524.75;;;7.80;88.53
19890;BME280;10107;51.198;6.824;2023-05-18T00:46:23;-21523.56;;;7.76;89.13
19890;BME280;10107;51.198;6.824;2023-05-18T00:50:26;-21521.69;;;7.68;90.27
19890;BME280;10107;51.198;6.824;2023-05-18T00:54:31;-21520.88;;;7.65;89.51
19890;BME280;10107;51.198;6.824;2023-05-18T00:58:35;-21519.69;;;7.61;90.98
19890;BME280;10107;51.198;6.824;2023-05-18T01:02:38;-21517.16;;;7.51;92.12
19890;BME280;10107;51.198;6.824;2023-05-18T01:06:42;-21514.78;;;7.42;93.26
19890;BME280;10107;51.198;6.824;2023-05-18T01:10:52;-21511.84;;;7.30;94.55
19890;BME280;10107;51.198;6.824;2023-05-18T01:15:02;-21509.97;;;7.23;95.58
19890;BME280;10107;51.198;6.824;2023-05-18T01:19:22;-21508.78;;;7.19;95.94
19890;BME280;10107;51.198;6.824;2023-05-18T01:23:52;-21507.84;;;7.15;95.18
19890;BME280;10107;51.198;6.824;2023-05-18T01:27:59;-21507.84;;;7.15;95.42
19890;BME280;10107;51.198;6.824;2023-05-18T01:32:06;-21506.25;;;7.09;96.01
19890;BME280;10107;51.198;6.824;2023-05-18T01:36:08;-21505.19;;;7.05;96.64
19890;BME280;10107;51.198;6.824;2023-05-18T01:40:10;-21505.31;;;7.05;96.42
19890;BME280;10107;51.198;6.824;2023-05-18T01:44:22;-21505.72;;;7.07;96.18
19890;BME280;10107;51.198;6.824;2023-05-18T01:48:26;-21505.59;;;7.06;95.27
19890;BME280;10107;51.198;6.824;2023-05-18T01:52:32;-21505.59;;;7.06;95.33
19890;BME280;10107;51.198;6.824;2023-05-18T01:56:36;-21505.19;;;7.05;95.38
19890;BME280;10107;51.198;6.824;2023-05-18T02:00:41;-21505.03;;;7.04;95.09
19890;BME280;10107;51.198;6.824;2023-05-18T02:04:43;-21504.25;;;7.01;95.93
19890;BME280;10107;51.198;6.824;2023-05-18T02:08:46;-21504.50;;;7.02;95.74
19890;BME280;10107;51.198;6.824;2023-05-18T02:12:47;-21503.44;;;6.98;97.37
19890;BME280;10107;51.198;6.824;2023-05-18T02:16:54;-21502.00;;;6.92;96.76
19890;BME280;10107;51.198;6.824;2023-05-18T02:20:57;-21501.44;;;6.90;97.49
19890;BME280;10107;51.198;6.824;2023-05-18T02:24:59;-21500.53;;;6.87;97.48
19890;BME280;10107;51.198;6.824;2023-05-18T02:29:01;-21499.47;;;6.83;97.82
19890;BME280;10107;51.198;6.824;2023-05-18T02:33:07;-21498.00;;;6.77;98.19
19890;BME280;10107;51.198;6.824;2023-05-18T02:37:10;-21497.59;;;6.76;97.98
19890;BME280;10107;51.198;6.824;2023-05-18T02:41:14;-21496.53;;;6.71;98.78
19890;BME280;10107;51.198;6.824;2023-05-18T02:45:16;-21495.84;;;6.69;98.50
19890;BME280;10107;51.198;6.824;2023-05-18T02:49:21;-21496.13;;;6.70;100.00
19890;BME280;10107;51.198;6.824;2023-05-18T02:53:23;-21495.59;;;6.68;100.00
19890;BME280;10107;51.198;6.824;2023-05-18T02:57:29;-21494.13;;;6.62;100.00
19890;BME280;10107;51.198;6.824;2023-05-18T03:01:40;-21492.78;;;6.57;100.00
19890;BME280;10107;51.198;6.824;2023-05-18T03:05:44;-21492.53;;;6.56;100.00
19890;BME280;10107;51.198;6.824;2023-05-18T03:09:46;-21491.72;;;6.53;100.00
19890;BME280;10107;51.198;6.824;2023-05-18T03:13:48;-21491.84;;;6.53;100.00
19890;BME280;10107;51.198;6.824;2023-05-18T03:17:50;-21490.41;;;6.48;100.00
19890;BME280;10107;51.198;6.824;2023-05-18T03:21:54;-21489.59;;;6.45;100.00
19890;BME280;10107;51.198;6.824;2023-05-18T03:25:59;-21488.53;;;6.41;100.00
19890;BME280;10107;51.198;6.824;2023-05-18T03:30:04;-21488.41;;;6.40;100.00
19890;BME280;10107;51.198;6.824;2023-05-18T03:34:06;-21487.47;;;6.37;100.00
19890;BME280;10107;51.198;6.824;2023-05-18T03:38:09;-21488.00;;;6.39;100.00
19890;BME280;10107;51.198;6.824;2023-05-18T03:42:16;-21486.94;;;6.34;100.00
19890;BME280;10107;51.198;6.824;2023-05-18T03:46:18;-21487.19;;;6.36;100.00
19890;BME280;10107;51.198;6.824;2023-05-18T03:50:20;-21487.47;;;6.37;100.00
19890;BME280;10107;51.198;6.824;2023-05-18T03:54:23;-21487.84;;;6.38;100.00
19890;BME280;10107;51.198;6.824;2023-05-18T03:58:25;-21488.25;;;6.40;100.00
19890;BME280;10107;51.198;6.824;2023-05-18T04:02:28;-21490.78;;;6.49;100.00
19890;BME280;10107;51.198;6.824;2023-05-18T04:06:31;-21493.06;;;6.58;100.00
19890;BME280;10107;51.198;6.824;2023-05-18T04:10:36;-21495.06;;;6.66;100.00
19890;BME280;10107;51.198;6.824;2023-05-18T04:14:40;-21495.84;;;6.69;100.00
19890;BME280;10107;51.198;6.824;2023-05-18T04:18:48;-21497.31;;;6.74;98.92
19890;BME280;10107;51.198;6.824;2023-05-18T04:22:52;-21498.78;;;6.80;100.00
19890;BME280;10107;51.198;6.824;2023-05-18T04:26:57;-21503.19;;;6.97;98.40
19890;BME280;10107;51.198;6.824;2023-05-18T04:31:00;-21505.97;;;7.08;96.73
19890;BME280;10107;51.198;6.824;2023-05-18T04:35:03;-21509.97;;;7.23;95.88
19890;BME280;10107;51.198;6.824;2023-05-18T04:39:08;-21512.63;;;7.33;94.64
19890;BME280;10107;51.198;6.824;2023-05-18T04:43:12;-21517.16;;;7.51;93.73
19890;BME280;10107;51.198;6.824;2023-05-18T04:47:16;-21519.03;;;7.58;92.18
19890;BME280;10107;51.198;6.824;2023-05-18T04:51:18;-21523.16;;;7.74;90.60
19890;BME280;10107;51.198;6.824;2023-05-18T04:55:21;-21529.66;;;7.99;89.21
19890;BME280;10107;51.198;6.824;2023-05-18T04:59:28;-21535.25;;;8.21;87.60
19890;BME280;10107;51.198;6.824;2023-05-18T05:03:30;-21543.50;;;8.52;86.44
19890;BME280;10107;51.198;6.824;2023-05-18T05:07:32;-21590.22;;;10.33;75.07
19890;BME280;10107;51.198;6.824;2023-05-18T05:11:33;-21638.13;;;12.19;63.93
19890;BME280;10107;51.198;6.824;2023-05-18T05:15:37;-21672.28;;;13.52;57.83
19890;BME280;10107;51.198;6.824;2023-05-18T05:19:38;-21693.91;;;14.36;53.02
19890;BME280;10107;51.198;6.824;2023-05-18T05:23:41;-21703.78;;;14.74;52.39
19890;BME280;10107;51.198;6.824;2023-05-18T05:27:44;-21713.25;;;15.11;49.99
19890;BME280;10107;51.198;6.824;2023-05-18T05:31:48;-21734.41;;;15.94;48.43
19890;BME280;10107;51.198;6.824;2023-05-18T05:35:50;-21765.50;;;17.15;44.26
19890;BME280;10107;51.198;6.824;2023-05-18T05:39:52;-21789.56;;;18.10;41.77
19890;BME280;10107;51.198;6.824;2023-05-18T05:43:54;-21820.94;;;19.33;39.07
19890;BME280;10107;51.198;6.824;2023-05-18T05:47:57;-21842.84;;;20.19;37.79
19890;BME280;10107;51.198;6.824;2023-05-18T05:51:59;-21851.84;;;20.54;35.73
19890;BME280;10107;51.198;6.824;2023-05-18T05:56:01;-21845.97;;;20.31;35.88
19890;BME280;10107;51.198;6.824;2023-05-18T06:00:05;-21849.38;;;20.45;35.39
19890;BME280;10107;51.198;6.824;2023-05-18T06:04:22;-21863.31;;;21.00;34.49
19890;BME280;10107;51.198;6.824;2023-05-18T06:08:25;-21894.38;;;22.22;32.84
19890;BME280;10107;51.198;6.824;2023-05-18T06:12:27;-21925.13;;;23.44;31.28
19890;BME280;10107;51.198;6.824;2023-05-18T06:16:29;-21951.13;;;24.47;29.94
19890;BME280;10107;51.198;6.824;2023-05-18T06:20:32;-21971.94;;;25.29;28.65
19890;BME280;10107;51.198;6.824;2023-05-18T06:24:34;-21978.91;;;25.57;27.62
19890;BME280;10107;51.198;6.824;2023-05-18T06:29:02;-21979.28;;;25.59;27.17
19890;BME280;10107;51.198;6.824;2023-05-18T06:33:34;-22014.84;;;27.00;25.17
19890;BME280;10107;51.198;6.824;2023-05-18T06:37:37;-22036.19;;;27.85;25.39
19890;BME280;10107;51.198;6.824;2023-05-18T06:41:39;-22050.81;;;28.44;23.52
19890;BME280;10107;51.198;6.824;2023-05-18T06:45:42;-22059.44;;;28.78;24.11
19890;BME280;10107;51.198;6.824;2023-05-18T06:49:49;-22061.72;;;28.88;23.53
19890;BME280;10107;51.198;6.824;2023-05-18T06:53:53;-22056.22;;;28.66;23.13
19890;BME280;10107;51.198;6.824;2023-05-18T06:57:55;-22083.00;;;29.73;21.97
19890;BME280;10107;51.198;6.824;2023-05-18T07:01:58;-22065.69;;;29.03;23.52
19890;BME280;10107;51.198;6.824;2023-05-18T07:06:01;-22093.47;;;30.15;21.67
19890;BME280;10107;51.198;6.824;2023-05-18T07:10:06;-22117.63;;;31.12;21.44
19890;BME280;10107;51.198;6.824;2023-05-18T07:14:08;-22149.47;;;32.40;19.85
19890;BME280;10107;51.198;6.824;2023-05-18T07:18:10;-22122.84;;;31.33;19.62
19890;BME280;10107;51.198;6.824;2023-05-18T07:22:11;-22130.25;;;31.63;19.52
19890;BME280;10107;51.198;6.824;2023-05-18T07:26:14;-22134.69;;;31.81;19.04
19890;BME280;10107;51.198;6.824;2023-05-18T07:30:16;-22135.59;;;31.84;19.07
19890;BME280;10107;51.198;6.824;2023-05-18T07:34:18;-22136.75;;;31.89;19.22
19890;BME280;10107;51.198;6.824;2023-05-18T07:38:20;-22154.81;;;32.62;17.91
19890;BME280;10107;51.198;6.824;2023-05-18T07:42:23;-22133.69;;;31.76;18.72
19890;BME280;10107;51.198;6.824;2023-05-18T07:46:24;-22157.22;;;32.71;18.67
19890;BME280;10107;51.198;6.824;2023-05-18T07:50:26;-22149.22;;;32.39;18.17
19890;BME280;10107;51.198;6.824;2023-05-18T07:54:28;-22133.94;;;31.77;18.79
19890;BME280;10107;51.198;6.824;2023-05-18T07:58:32;-22132.78;;;31.73;18.35
19890;BME280;10107;51.198;6.824;2023-05-18T08:02:34;-22096.41;;;30.27;19.70
19890;BME280;10107;51.198;6.824;2023-05-18T08:06:38;-22022.69;;;27.32;22.50
19890;BME280;10107;51.198;6.824;2023-05-18T08:10:40;-22015.50;;;27.03;23.38
19890;BME280;10107;51.198;6.824;2023-05-18T08:14:43;-22008.41;;;26.75;24.09
19890;BME280;10107;51.198;6.824;2023-05-18T08:18:44;-22017.41;;;27.11;23.26
19890;BME280;10107;51.198;6.824;2023-05-18T08:22:46;-22012.28;;;26.90;23.85
19890;BME280;10107;51.198;6.824;2023-05-18T08:26:48;-22004.44;;;26.59;23.35
19890;BME280;10107;51.198;6.824;2023-05-18T08:30:52;-22034.66;;;27.79;22.42
19890;BME280;10107;51.198;6.824;2023-05-18T08:34:54;-22013.81;;;26.96;22.88
19890;BME280;10107;51.198;6.824;2023-05-18T08:38:55;-22025.00;;;27.41;22.98
19890;BME280;10107;51.198;6.824;2023-05-18T08:43:02;-22024.00;;;27.37;23.27
19890;BME280;10107;51.198;6.824;2023-05-18T08:47:08;-22016.00;;;27.05;23.29
19890;BME280;10107;51.198;6.824;2023-05-18T08:51:11;-22015.50;;;27.03;22.59
19890;BME280;10107;51.198;6.824;2023-05-18T08:55:14;-22044.41;;;28.18;22.11
19890;BME280;10107;51.198;6.824;2023-05-18T08:59:22;-22048.13;;;28.33;22.16
19890;BME280;10107;51.198;6.824;2023-05-18T09:03:26;-22034.41;;;27.78;22.23
19890;BME280;10107;51.198;6.824;2023-05-18T09:07:27;-22037.34;;;27.90;21.90
19890;BME280;10107;51.198;6.824;2023-05-18T09:11:31;-22025.53;;;27.43;23.42
19890;BME280;10107;51.198;6.824;2023-05-18T09:15:33;-22044.16;;;28.17;21.65
19890;BME280;10107;51.198;6.824;2023-05-18T09:19:36;-22061.09;;;28.85;21.64
19890;BME280;10107;51.198;6.824;2023-05-18T09:23:39;-22045.06;;;28.21;20.97
19890;BME280;10107;51.198;6.824;2023-05-18T09:27:41;-22036.72;;;27.88;21.74
19890;BME280;10107;51.198;6.824;2023-05-18T09:31:43;-22036.06;;;27.85;22.32
19890;BME280;10107;51.198;6.824;2023-05-18T09:35:48;-22050.56;;;28.43;21.51
19890;BME280;10107;51.198;6.824;2023-05-18T09:39:57;-22079.03;;;29.57;20.78
19890;BME280;10107;51.198;6.824;2023-05-18T09:44:00;-22057.50;;;28.71;21.13
19890;BME280;10107;51.198;6.824;2023-05-18T09:48:06;-22041.59;;;28.07;22.77
19890;BME280;10107;51.198;6.824;2023-05-18T09:52:09;-22068.66;;;29.15;21.62
19890;BME280;10107;51.198;6.824;2023-05-18T09:56:11;-22062.38;;;28.90;21.60
19890;BME280;10107;51.198;6.824;2023-05-18T10:00:16;-22065.84;;;29.04;20.86
19890;BME280;10107;51.198;6.824;2023-05-18T10:04:18;-22082.88;;;29.72;21.38
19890;BME280;10107;51.198;6.824;2023-05-18T10:08:22;-22062.63;;;28.91;21.82
19890;BME280;10107;51.198;6.824;2023-05-18T10:12:23;-22062.13;;;28.89;22.38
19890;BME280;10107;51.198;6.824;2023-05-18T10:16:25;-21994.63;;;26.20;24.50
19890;BME280;10107;51.198;6.824;2023-05-18T10:20:27;-21995.41;;;26.23;24.63
19890;BME280;10107;51.198;6.824;2023-05-18T10:24:30;-22030.78;;;27.64;23.52
19890;BME280;10107;51.198;6.824;2023-05-18T10:28:37;-22050.44;;;28.42;22.55
19890;BME280;10107;51.198;6.824;2023-05-18T10:32:41;-22043.38;;;28.14;22.04
19890;BME280;10107;51.198;6.824;2023-05-18T10:36:44;-22044.78;;;28.20;23.24
19890;BME280;10107;51.198;6.824;2023-05-18T10:40:49;-22028.75;;;27.56;23.24
19890;BME280;10107;51.198;6.824;2023-05-18T10:44:52;-22022.56;;;27.31;23.28
19890;BME280;10107;51.198;6.824;2023-05-18T10:48:54;-22018.19;;;27.14;23.77
19890;BME280;10107;51.198;6.824;2023-05-18T10:53:00;-22037.22;;;27.90;22.80
19890;BME280;10107;51.198;6.824;2023-05-18T10:57:05;-22030.78;;;27.64;23.70
19890;BME280;10107;51.198;6.824;2023-05-18T11:01:11;-22025.00;;;27.41;22.99
19890;BME280;10107;51.198;6.824;2023-05-18T11:05:14;-21995.28;;;26.22;23.92
19890;BME280;10107;51.198;6.824;2023-05-18T11:09:20;-22000.69;;;26.44;24.30
19890;BME280;10107;51.198;6.824;2023-05-18T11:13:27;-22021.53;;;27.27;23.41
19890;BME280;10107;51.198;6.824;2023-05-18T11:17:29;-22039.16;;;27.97;23.04
19890;BME280;10107;51.198;6.824;2023-05-18T11:21:49;-22020.00;;;27.21;24.46
19890;BME280;10107;51.198;6.824;2023-05-18T11:25:51;-21979.69;;;25.60;25.17
19890;BME280;10107;51.198;6.824;2023-05-18T11:29:55;-21995.03;;;26.21;24.80
19890;BME280;10107;51.198;6.824;2023-05-18T11:33:56;-22000.16;;;26.42;25.56
19890;BME280;10107;51.198;6.824;2023-05-18T11:38:08;-22020.00;;;27.21;24.10
19890;BME280;10107;51.198;6.824;2023-05-18T11:42:12;-22006.34;;;26.66;24.90
19890;BME280;10107;51.198;6.824;2023-05-18T11:46:20;-22001.59;;;26.47;24.42
19890;BME280;10107;51.198;6.824;2023-05-18T11:50:22;-22001.19;;;26.46;24.54
19890;BME280;10107;51.198;6.824;2023-05-18T11:54:24;-21995.94;;;26.25;24.50
19890;BME280;10107;51.198;6.824;2023-05-18T11:58:26;-21974.50;;;25.40;27.03
19890;BME280;10107;51.198;6.824;2023-05-18T12:02:30;-21967.41;;;25.12;25.45
19890;BME280;10107;51.198;6.824;2023-05-18T12:06:33;-21977.09;;;25.50;26.15
19890;BME280;10107;51.198;6.824;2023-05-18T12:10:35;-21945.19;;;24.23;26.88
19890;BME280;10107;51.198;6.824;2023-05-18T12:14:39;-21894.25;;;22.22;30.17
19890;BME280;10107;51.198;6.824;2023-05-18T12:18:47;-21904.88;;;22.64;29.77
19890;BME280;10107;51.198;6.824;2023-05-18T12:22:51;-21929.38;;;23.61;28.81
19890;BME280;10107;51.198;6.824;2023-05-18T12:26:53;-21927.44;;;23.53;28.48
19890;BME280;10107;51.198;6.824;2023-05-18T12:30:55;-21934.44;;;23.81;28.56
19890;BME280;10107;51.198;6.824;2023-05-18T12:34:59;-21935.88;;;23.86;28.11
19890;BME280;10107;51.198;6.824;2023-05-18T12:39:00;-21936.38;;;23.88;28.42
19890;BME280;10107;51.198;6.824;2023-05-18T12:43:02;-21923.44;;;23.37;28.45
19890;BME280;10107;51.198;6.824;2023-05-18T12:47:04;-21905.28;;;22.65;32.12
19890;BME280;10107;51.198;6.824;2023-05-18T12:51:16;-21910.22;;;22.85;29.74
19890;BME280;10107;51.198;6.824;2023-05-18T12:55:19;-21906.97;;;22.72;29.46
19890;BME280;10107;51.198;6.824;2023-05-18T12:59:22;-21889.56;;;22.03;30.27
19890;BME280;10107;51.198;6.824;2023-05-18T13:03:23;-21883.72;;;21.80;30.67
19890;BME280;10107;51.198;6.824;2023-05-18T13:07:27;-21895.53;;;22.27;29.99
19890;BME280;10107;51.198;6.824;2023-05-18T13:11:29;-21903.47;;;22.58;30.80
19890;BME280;10107;51.198;6.824;2023-05-18T13:15:35;-21912.66;;;22.94;30.93
19890;BME280;10107;51.198;6.824;2023-05-18T13:19:37;-21910.34;;;22.85;30.05
19890;BME280;10107;51.198;6.824;2023-05-18T13:23:40;-21898.16;;;22.37;30.59
19890;BME280;10107;51.198;6.824;2023-05-18T13:27:42;-21887.50;;;21.95;31.25
19890;BME280;10107;51.198;6.824;2023-05-18T13:31:45;-21892.69;;;22.15;31.08
19890;BME280;10107;51.198;6.824;2023-05-18T13:35:47;-21892.03;;;22.13;31.75
19890;BME280;10107;51.198;6.824;2023-05-18T13:39:50;-21885.94;;;21.89;31.02
19890;BME280;10107;51.198;6.824;2023-05-18T13:43:52;-21876.72;;;21.52;31.92
19890;BME280;10107;51.198;6.824;2023-05-18T13:47:54;-21874.38;;;21.43;31.97
19890;BME280;10107;51.198;6.824;2023-05-18T13:51:56;-21876.06;;;21.50;33.53
19890;BME280;10107;51.198;6.824;2023-05-18T13:56:01;-21874.09;;;21.42;32.48
19890;BME280;10107;51.198;6.824;2023-05-18T14:00:03;-21865.13;;;21.07;32.27
19890;BME280;10107;51.198;6.824;2023-05-18T14:04:12;-21860.44;;;20.88;32.84
19890;BME280;10107;51.198;6.824;2023-05-18T14:08:14;-21858.75;;;20.82;33.03
19890;BME280;10107;51.198;6.824;2023-05-18T14:12:17;-21851.84;;;20.54;33.95
19890;BME280;10107;51.198;6.824;2023-05-18T14:16:19;-21858.34;;;20.80;33.62
19890;BME280;10107;51.198;6.824;2023-05-18T14:20:20;-21857.44;;;20.76;33.78
19890;BME280;10107;51.198;6.824;2023-05-18T14:24:22;-21854.06;;;20.63;34.66
19890;BME280;10107;51.198;6.824;2023-05-18T14:28:25;-21857.44;;;20.76;34.54
19890;BME280;10107;51.198;6.824;2023-05-18T14:32:27;-21852.50;;;20.57;34.25
19890;BME280;10107;51.198;6.824;2023-05-18T14:36:28;-21848.47;;;20.41;34.88
19890;BME280;10107;51.198;6.824;2023-05-18T14:40:30;-21842.06;;;20.16;35.26
19890;BME280;10107;51.198;6.824;2023-05-18T14:44:33;-21838.81;;;20.03;36.37
19890;BME280;10107;51.198;6.824;2023-05-18T14:48:35;-21834.25;;;19.85;36.51
19890;BME280;10107;51.198;6.824;2023-05-18T14:52:37;-21830.88;;;19.72;36.55
19890;BME280;10107;51.198;6.824;2023-05-18T14:56:39;-21832.16;;;19.77;36.68
19890;BME280;10107;51.198;6.824;2023-05-18T15:00:46;-21833.72;;;19.83;37.43
19890;BME280;10107;51.198;6.824;2023-05-18T15:04:47;-21833.47;;;19.82;37.33
19890;BME280;10107;51.198;6.824;2023-05-18T15:08:49;-21830.72;;;19.71;37.17
19890;BME280;10107;51.198;6.824;2023-05-18T15:12:51;-21828.00;;;19.61;37.66
19890;BME280;10107;51.198;6.824;2023-05-18T15:16:56;-21831.50;;;19.74;36.87
19890;BME280;10107;51.198;6.824;2023-05-18T15:20:59;-21832.94;;;19.80;37.42
19890;BME280;10107;51.198;6.824;2023-05-18T15:25:00;-21835.44;;;19.90;37.39
19890;BME280;10107;51.198;6.824;2023-05-18T15:29:02;-21830.47;;;19.70;36.80
19890;BME280;10107;51.198;6.824;2023-05-18T15:33:05;-21819.91;;;19.29;38.34
19890;BME280;10107;51.198;6.824;2023-05-18T15:37:07;-21820.81;;;19.32;38.53
19890;BME280;10107;51.198;6.824;2023-05-18T15:41:08;-21824.34;;;19.46;38.93
19890;BME280;10107;51.198;6.824;2023-05-18T15:45:11;-21823.03;;;19.41;39.00
19890;BME280;10107;51.198;6.824;2023-05-18T15:49:14;-21814.28;;;19.07;37.98
19890;BME280;10107;51.198;6.824;2023-05-18T15:53:18;-21805.66;;;18.73;39.66
19890;BME280;10107;51.198;6.824;2023-05-18T15:57:20;-21801.59;;;18.57;39.59
19890;BME280;10107;51.198;6.824;2023-05-18T16:01:22;-21796.63;;;18.37;39.42
19890;BME280;10107;51.198;6.824;2023-05-18T16:05:25;-21797.69;;;18.42;40.20
19890;BME280;10107;51.198;6.824;2023-05-18T16:09:27;-21797.44;;;18.40;40.01
19890;BME280;10107;51.198;6.824;2023-05-18T16:13:28;-21798.22;;;18.44;40.36
19890;BME280;10107;51.198;6.824;2023-05-18T16:17:30;-21798.47;;;18.45;40.92
19890;BME280;10107;51.198;6.824;2023-05-18T16:21:33;-21799.13;;;18.47;39.81
19890;BME280;10107;51.198;6.824;2023-05-18T16:25:35;-21797.81;;;18.42;40.71
19890;BME280;10107;51.198;6.824;2023-05-18T16:29:36;-21793.91;;;18.27;40.28
19890;BME280;10107;51.198;6.824;2023-05-18T16:33:38;-21790.09;;;18.12;40.43
19890;BME280;10107;51.198;6.824;2023-05-18T16:37:41;-21788.00;;;18.04;40.35
19890;BME280;10107;51.198;6.824;2023-05-18T16:41:43;-21784.09;;;17.88;41.12
19890;BME280;10107;51.198;6.824;2023-05-18T16:45:45;-21782.91;;;17.84;41.31
19890;BME280;10107;51.198;6.824;2023-05-18T16:49:46;-21784.22;;;17.89;41.85
19890;BME280;10107;51.198;6.824;2023-05-18T16:53:52;-21783.94;;;17.88;41.46
19890;BME280;10107;51.198;6.824;2023-05-18T16:57:54;-21781.47;;;17.78;41.96
19890;BME280;10107;51.198;6.824;2023-05-18T17:01:56;-21777.66;;;17.63;41.46
19890;BME280;10107;51.198;6.824;2023-05-18T17:05:58;-21775.44;;;17.54;41.44
19890;BME280;10107;51.198;6.824;2023-05-18T17:10:02;-21773.88;;;17.48;42.03
19890;BME280;10107;51.198;6.824;2023-05-18T17:14:04;-21773.88;;;17.48;41.62
19890;BME280;10107;51.198;6.824;2023-05-18T17:18:06;-21772.44;;;17.42;42.44
19890;BME280;10107;51.198;6.824;2023-05-18T17:22:07;-21772.44;;;17.42;43.01
19890;BME280;10107;51.198;6.824;2023-05-18T17:26:11;-21772.16;;;17.41;43.41
19890;BME280;10107;51.198;6.824;2023-05-18T17:30:13;-21770.34;;;17.34;43.75
19890;BME280;10107;51.198;6.824;2023-05-18T17:34:14;-21768.50;;;17.27;43.54
19890;BME280;10107;51.198;6.824;2023-05-18T17:38:16;-21767.06;;;17.21;43.36
19890;BME280;10107;51.198;6.824;2023-05-18T17:42:19;-21766.66;;;17.20;43.10
19890;BME280;10107;51.198;6.824;2023-05-18T17:46:21;-21764.31;;;17.11;42.94
19890;BME280;10107;51.198;6.824;2023-05-18T17:50:22;-21758.41;;;16.88;43.84
19890;BME280;10107;51.198;6.824;2023-05-18T17:54:24;-21753.16;;;16.67;45.18
19890;BME280;10107;51.198;6.824;2023-05-18T17:58:27;-21749.34;;;16.52;45.45
19890;BME280;10107;51.198;6.824;2023-05-18T18:02:29;-21752.50;;;16.65;45.30
19890;BME280;10107;51.198;6.824;2023-05-18T18:06:31;-21763.00;;;17.06;44.26
19890;BME280;10107;51.198;6.824;2023-05-18T18:10:35;-21752.91;;;16.66;45.46
19890;BME280;10107;51.198;6.824;2023-05-18T18:14:38;-21743.72;;;16.30;46.67
19890;BME280;10107;51.198;6.824;2023-05-18T18:18:42;-21738.88;;;16.11;47.62
19890;BME280;10107;51.198;6.824;2023-05-18T18:22:45;-21734.28;;;15.93;47.97
19890;BME280;10107;51.198;6.824;2023-05-18T18:26:48;-21730.34;;;15.78;49.11
19890;BME280;10107;51.198;6.824;2023-05-18T18:30:53;-21727.44;;;15.67;49.30
19890;BME280;10107;51.198;6.824;2023-05-18T18:34:57;-21724.69;;;15.56;49.98
19890;BME280;10107;51.198;6.824;2023-05-18T18:39:02;-21723.09;;;15.50;50.53
19890;BME280;10107;51.198;6.824;2023-05-18T18:43:05;-21720.06;;;15.38;50.59
19890;BME280;10107;51.198;6.824;2023-05-18T18:47:08;-21716.66;;;15.24;51.41
19890;BME280;10107;51.198;6.824;2023-05-18T18:51:10;-21713.78;;;15.13;52.21
19890;BME280;10107;51.198;6.824;2023-05-18T18:55:13;-21710.63;;;15.01;53.23
19890;BME280;10107;51.198;6.824;2023-05-18T18:59:16;-21707.06;;;14.87;53.49
19890;BME280;10107;51.198;6.824;2023-05-18T19:03:19;-21703.91;;;14.75;53.00
19890;BME280;10107;51.198;6.824;2023-05-18T19:07:23;-21701.16;;;14.64;54.31
19890;BME280;10107;51.198;6.824;2023-05-18T19:11:27;-21698.50;;;14.54;54.61
19890;BME280;10107;51.198;6.824;2023-05-18T19:15:29;-21695.75;;;14.43;55.62
19890;BME280;10107;51.198;6.824;2023-05-18T19:19:33;-21693.91;;;14.36;56.40
19890;BME280;10107;51.198;6.824;2023-05-18T19:23:36;-21691.25;;;14.25;56.98
19890;BME280;10107;51.198;6.824;2023-05-18T19:27:38;-21688.75;;;14.16;57.19
19890;BME280;10107;51.198;6.824;2023-05-18T19:31:44;-21686.41;;;14.06;57.86
19890;BME280;10107;51.198;6.824;2023-05-18T19:35:47;-21683.50;;;13.95;58.65
19890;BME280;10107;51.198;6.824;2023-05-18T19:39:53;-21681.00;;;13.85;58.44
19890;BME280;10107;51.198;6.824;2023-05-18T19:43:57;-21678.75;;;13.77;59.28
19890;BME280;10107;51.198;6.824;2023-05-18T19:47:59;-21677.16;;;13.71;60.08
19890;BME280;10107;51.198;6.824;2023-05-18T19:52:04;-21674.53;;;13.60;60.27
19890;BME280;10107;51.198;6.824;2023-05-18T19:56:07;-21672.16;;;13.51;61.60
19890;BME280;10107;51.198;6.824;2023-05-18T20:00:10;-21670.59;;;13.45;63.04
19890;BME280;10107;51.198;6.824;2023-05-18T20:04:14;-21668.88;;;13.38;61.71
19890;BME280;10107;51.198;6.824;2023-05-18T20:08:20;-21666.75;;;13.30;62.62
19890;BME280;10107;51.198;6.824;2023-05-18T20:12:22;-21665.03;;;13.23;62.11
19890;BME280;10107;51.198;6.824;2023-05-18T20:16:24;-21663.19;;;13.16;63.01
19890;BME280;10107;51.198;6.824;2023-05-18T20:20:28;-21661.47;;;13.10;63.70
19890;BME280;10107;51.198;6.824;2023-05-18T20:24:41;-21660.41;;;13.05;63.76
19890;BME280;10107;51.198;6.824;2023-05-18T20:28:44;-21658.84;;;12.99;64.08
19890;BME280;10107;51.198;6.824;2023-05-18T20:32:47;-21657.38;;;12.94;64.90
19890;BME280;10107;51.198;6.824;2023-05-18T20:36:51;-21655.53;;;12.86;64.02
19890;BME280;10107;51.198;6.824;2023-05-18T20:40:56;-21654.34;;;12.82;64.66
19890;BME280;10107;51.198;6.824;2023-05-18T20:44:58;-21653.16;;;12.77;64.69
19890;BME280;10107;51.198;6.824;2023-05-18T20:49:00;-21652.09;;;12.73;65.08
19890;BME280;10107;51.198;6.824;2023-05-18T20:53:03;-21649.72;;;12.64;64.96
19890;BME280;10107;51.198;6.824;2023-05-18T20:57:07;-21648.69;;;12.60;64.99
19890;BME280;10107;51.198;6.824;2023-05-18T21:01:10;-21647.09;;;12.54;66.24
19890;BME280;10107;51.198;6.824;2023-05-18T21:05:13;-21645.91;;;12.49;65.92
19890;BME280;10107;51.198;6.824;2023-05-18T21:09:15;-21644.31;;;12.43;66.15
19890;BME280;10107;51.198;6.824;2023-05-18T21:13:18;-21641.81;;;12.33;66.31
19890;BME280;10107;51.198;6.824;2023-05-18T21:17:20;-21641.41;;;12.32;66.65